createdAt,value
2019-04-12T00:01:32.723Z,-0.50
2019-04-12T00:04:01.553Z,-0.60
2019-04-12T00:06:33.015Z,-0.70
2019-04-12T00:09:02.964Z,-0.80
2019-04-12T00:11:32.334Z,-0.80
2019-04-12T00:14:01.693Z,-0.90
2019-04-12T00:16:31.059Z,-0.90
2019-04-12T00:19:00.415Z,-0.90
2019-04-12T00:21:29.786Z,-0.90
2019-04-12T00:23:59.135Z,-0.90
2019-04-12T00:26:28.494Z,-0.90
2019-04-12T00:28:57.867Z,-0.90
2019-04-12T00:31:27.234Z,-0.90
2019-04-12T00:33:56.589Z,-0.90
2019-04-12T00:36:25.947Z,-0.90
2019-04-12T00:38:58.156Z,-1.00
2019-04-12T00:41:26.291Z,-1.00
2019-04-12T00:43:55.651Z,-1.00
2019-04-12T00:46:25.000Z,-0.90
2019-04-12T00:48:54.367Z,-1.00
2019-04-12T00:51:23.702Z,-0.90
2019-04-12T00:53:53.083Z,-1.00
2019-04-12T00:56:22.426Z,-1.00
2019-04-12T00:58:51.784Z,-1.00
2019-04-12T01:01:29.259Z,-1.00
2019-04-12T01:04:02.198Z,-1.10
2019-04-12T01:06:31.541Z,-1.10
2019-04-12T01:09:01.006Z,-1.20
2019-04-12T01:11:30.350Z,-1.20
2019-04-12T01:13:59.715Z,-1.20
2019-04-12T01:16:30.906Z,-1.30
2019-04-12T01:19:02.137Z,-1.30
2019-04-12T01:21:31.762Z,-1.30
2019-04-12T01:24:01.131Z,-1.30
2019-04-12T01:26:30.474Z,-1.30
2019-04-12T01:28:59.854Z,-1.30
2019-04-12T01:31:29.236Z,-1.30
2019-04-12T01:33:58.597Z,-1.30
2019-04-12T01:36:27.947Z,-1.30
2019-04-12T01:38:57.363Z,-1.30
2019-04-12T01:41:26.708Z,-1.30
2019-04-12T01:43:56.125Z,-1.30
2019-04-12T01:46:25.463Z,-1.30
2019-04-12T01:48:54.830Z,-1.20
2019-04-12T01:51:24.174Z,-1.20
2019-04-12T01:53:53.543Z,-1.20
2019-04-12T01:56:23.531Z,-1.20
2019-04-12T01:58:52.857Z,-1.30
2019-04-12T02:01:22.199Z,-1.20
2019-04-12T02:03:51.557Z,-1.20
2019-04-12T02:06:20.912Z,-1.20
2019-04-12T02:08:50.279Z,-1.20
2019-04-12T02:11:19.627Z,-1.20
2019-04-12T02:13:48.988Z,-1.30
2019-04-12T02:16:18.352Z,-1.30
2019-04-12T02:18:47.716Z,-1.40
2019-04-12T02:21:17.193Z,-1.40
2019-04-12T02:23:46.531Z,-1.40
2019-04-12T02:26:15.866Z,-1.50
2019-04-12T02:28:54.352Z,-1.60
2019-04-12T02:32:01.112Z,-1.70
2019-04-12T02:34:31.072Z,-1.70
2019-04-12T02:37:00.403Z,-1.60
2019-04-12T02:39:29.776Z,-1.60
2019-04-12T02:41:59.515Z,-1.50
2019-04-12T02:44:29.585Z,-1.40
2019-04-12T02:47:22.768Z,-1.40
2019-04-12T02:50:16.669Z,-1.50
2019-04-12T02:52:56.713Z,-1.60
2019-04-12T02:55:38.395Z,-1.70
2019-04-12T02:58:23.751Z,-1.70
2019-04-12T03:00:56.665Z,-1.80
2019-04-12T03:03:26.014Z,-1.70
2019-04-12T03:05:56.486Z,-1.60
2019-04-12T03:08:26.059Z,-1.50
2019-04-12T03:10:57.220Z,-1.40
2019-04-12T03:13:29.250Z,-1.30
2019-04-12T03:15:59.708Z,-1.30
2019-04-12T03:18:29.059Z,-1.30
2019-04-12T03:20:59.072Z,-1.20
2019-04-12T03:23:29.236Z,-1.20
2019-04-12T03:25:59.122Z,-1.10
2019-04-12T03:28:29.404Z,-1.00
2019-04-12T03:30:58.862Z,-0.90
2019-04-12T03:33:28.653Z,-0.80
2019-04-12T03:35:58.122Z,-0.60
2019-04-12T03:38:27.680Z,-0.50
2019-04-12T03:40:57.191Z,-0.40
2019-04-12T03:43:26.856Z,-0.20
2019-04-12T03:45:56.264Z,-0.20
2019-04-12T03:48:25.623Z,-0.10
2019-04-12T03:50:55.086Z,0.00
2019-04-12T03:53:25.058Z,0.10
2019-04-12T03:56:07.192Z,0.10
2019-04-12T03:58:25.630Z,0.20
2019-04-12T04:00:55.011Z,0.30
2019-04-12T04:03:24.565Z,0.30
2019-04-12T04:05:54.347Z,0.30
2019-04-12T04:08:23.803Z,0.40
2019-04-12T04:10:53.511Z,0.40
2019-04-12T04:13:22.915Z,0.40
2019-04-12T04:15:53.163Z,0.50
2019-04-12T04:18:25.181Z,0.60
2019-04-12T04:21:04.524Z,0.60
2019-04-12T04:23:47.780Z,0.60
2019-04-12T04:26:36.261Z,0.60
2019-04-12T04:29:38.182Z,0.60
2019-04-12T04:32:21.895Z,0.70
2019-04-12T04:34:52.333Z,0.70
2019-04-12T04:37:22.924Z,0.70
2019-04-12T04:39:52.600Z,0.70
2019-04-12T04:42:21.999Z,0.80
2019-04-12T04:44:52.205Z,0.90
2019-04-12T04:47:21.515Z,0.90
2019-04-12T04:49:51.305Z,1.00
2019-04-12T04:52:20.798Z,1.00
2019-04-12T04:54:50.199Z,1.00
2019-04-12T04:57:19.878Z,1.10
2019-04-12T04:59:49.444Z,1.10
2019-04-12T05:02:18.823Z,1.10
2019-04-12T05:04:48.194Z,1.10
2019-04-12T05:07:17.776Z,1.20
2019-04-12T05:09:47.242Z,1.20
2019-04-12T05:12:17.335Z,1.30
2019-04-12T05:14:46.726Z,1.30
2019-04-12T05:17:16.091Z,1.40
2019-04-12T05:19:45.767Z,1.40
2019-04-12T05:22:15.143Z,1.50
2019-04-12T05:24:44.651Z,1.50
2019-04-12T05:27:14.214Z,1.50
2019-04-12T05:29:43.826Z,1.70
2019-04-12T05:32:13.191Z,1.70
2019-04-12T05:34:42.580Z,1.70
2019-04-12T05:37:12.038Z,1.80
2019-04-12T05:39:41.419Z,1.80
2019-04-12T05:42:10.779Z,1.80
2019-04-12T05:44:40.167Z,1.90
2019-04-12T05:47:34.518Z,1.90
2019-04-12T05:50:17.787Z,1.90
2019-04-12T05:52:47.151Z,2.00
2019-04-12T05:55:16.851Z,2.00
2019-04-12T05:57:47.867Z,2.00
2019-04-12T06:00:25.207Z,2.10
2019-04-12T06:02:57.901Z,2.20
2019-04-12T06:05:28.042Z,2.20
2019-04-12T06:07:56.707Z,2.30
2019-04-12T06:10:26.086Z,2.30
2019-04-12T06:12:55.798Z,2.30
2019-04-12T06:15:25.427Z,2.40
2019-04-12T06:17:54.867Z,2.40
2019-04-12T06:20:35.790Z,2.50
2019-04-12T06:23:05.147Z,2.50
2019-04-12T06:25:56.660Z,2.60
2019-04-12T06:28:26.039Z,2.70
2019-04-12T06:30:56.670Z,2.70
2019-04-12T06:33:26.030Z,2.80
2019-04-12T06:35:55.513Z,2.90
2019-04-12T06:38:24.855Z,2.90
2019-04-12T06:40:54.231Z,3.00
2019-04-12T06:43:23.586Z,3.00
2019-04-12T06:45:52.956Z,3.00
2019-04-12T06:48:22.306Z,3.10
2019-04-12T06:50:54.737Z,3.20
2019-04-12T06:53:24.090Z,3.30
2019-04-12T06:56:00.215Z,3.30
2019-04-12T06:58:29.586Z,3.40
2019-04-12T07:01:21.463Z,3.40
2019-04-12T07:03:56.993Z,3.50
2019-04-12T07:06:24.743Z,3.60
2019-04-12T07:08:54.091Z,3.60
2019-04-12T07:11:23.467Z,3.70
2019-04-12T07:13:52.822Z,3.70
2019-04-12T07:16:22.196Z,3.80
2019-04-12T07:18:51.566Z,3.80
2019-04-12T07:21:20.947Z,3.80
2019-04-12T07:23:50.297Z,3.90
2019-04-12T07:26:19.671Z,4.10
2019-04-12T07:28:49.047Z,4.10
2019-04-12T07:31:18.414Z,4.20
2019-04-12T07:33:47.870Z,4.20
2019-04-12T07:36:17.206Z,4.30
2019-04-12T07:38:46.555Z,4.40
2019-04-12T07:41:15.939Z,4.50
2019-04-12T07:43:45.293Z,4.60
2019-04-12T07:46:14.666Z,4.60
2019-04-12T07:48:44.024Z,4.70
2019-04-12T07:51:35.169Z,4.90
2019-04-12T07:54:23.495Z,5.00
2019-04-12T07:56:52.986Z,5.20
2019-04-12T07:59:26.883Z,5.20
2019-04-12T08:02:15.227Z,5.30
2019-04-12T08:05:12.781Z,5.30
2019-04-12T08:07:51.095Z,5.40
2019-04-12T08:10:20.464Z,5.40
2019-04-12T08:12:49.814Z,5.50
2019-04-12T08:15:19.167Z,5.30
2019-04-12T08:17:48.543Z,5.30
2019-04-12T08:20:17.907Z,5.20
2019-04-12T08:22:47.286Z,5.10
2019-04-12T08:25:16.648Z,5.20
2019-04-12T08:27:46.051Z,5.30
2019-04-12T08:30:15.518Z,5.40
2019-04-12T08:32:44.907Z,5.60
2019-04-12T08:35:14.267Z,5.90
2019-04-12T08:37:43.696Z,6.10
2019-04-12T08:40:13.046Z,6.30
2019-04-12T08:42:43.356Z,5.80
2019-04-12T08:45:12.826Z,5.60
2019-04-12T08:47:42.206Z,5.80
2019-04-12T08:50:11.680Z,5.80
2019-04-12T08:52:41.022Z,5.60
2019-04-12T08:55:10.482Z,5.70
2019-04-12T08:57:39.818Z,6.00
2019-04-12T09:00:10.078Z,6.20
2019-04-12T09:02:39.559Z,6.30
2019-04-12T09:05:09.145Z,6.40
2019-04-12T09:07:38.482Z,6.60
2019-04-12T09:10:08.066Z,6.80
2019-04-12T09:12:37.402Z,6.80
2019-04-12T09:15:07.056Z,6.90
2019-04-12T09:17:36.435Z,6.90
2019-04-12T09:20:27.688Z,6.80
2019-04-12T09:23:28.050Z,6.90
2019-04-12T09:26:04.131Z,7.00
2019-04-12T09:28:33.467Z,7.10
2019-04-12T09:31:02.962Z,7.30
2019-04-12T09:33:32.414Z,7.50
2019-04-12T09:36:01.767Z,7.60
2019-04-12T09:38:31.127Z,7.80
2019-04-12T09:41:00.513Z,8.00
2019-04-12T09:43:29.859Z,8.00
2019-04-12T09:45:59.240Z,8.30
2019-04-12T09:48:28.595Z,8.40
2019-04-12T09:50:57.978Z,8.30
2019-04-12T09:53:27.328Z,8.30
2019-04-12T09:55:56.711Z,8.50
2019-04-12T09:58:36.786Z,8.50
2019-04-12T10:00:57.099Z,8.40
2019-04-12T10:03:26.456Z,8.20
2019-04-12T10:05:55.842Z,8.30
2019-04-12T10:08:27.184Z,8.40
2019-04-12T10:10:56.238Z,8.30
2019-04-12T10:13:27.848Z,8.50
2019-04-12T10:15:57.232Z,8.70
2019-04-12T10:18:26.587Z,8.70
2019-04-12T10:20:55.954Z,8.50
2019-04-12T10:23:25.315Z,8.10
2019-04-12T10:25:54.733Z,8.00
2019-04-12T10:28:24.118Z,8.10
2019-04-12T10:30:53.491Z,8.30
2019-04-12T10:33:22.851Z,8.30
2019-04-12T10:35:52.231Z,8.20
2019-04-12T10:38:21.583Z,8.40
2019-04-12T10:40:50.890Z,8.70
2019-04-12T10:43:20.248Z,9.10
2019-04-12T10:46:08.603Z,9.30
2019-04-12T10:48:51.831Z,9.60
2019-04-12T10:51:39.063Z,9.90
2019-04-12T10:54:30.394Z,9.90
2019-04-12T10:56:59.778Z,9.90
2019-04-12T10:59:29.346Z,9.80
2019-04-12T11:01:58.727Z,9.30
2019-04-12T11:04:28.087Z,9.00
2019-04-12T11:06:57.467Z,9.00
2019-04-12T11:09:26.834Z,8.70
2019-04-12T11:11:56.218Z,8.60
2019-04-12T11:14:25.572Z,8.50
2019-04-12T11:16:54.991Z,8.60
2019-04-12T11:19:24.354Z,8.80
2019-04-12T11:21:53.755Z,9.10
2019-04-12T11:24:23.122Z,9.30
2019-04-12T11:26:52.498Z,9.40
2019-04-12T11:29:21.877Z,9.60
2019-04-12T11:31:51.263Z,9.50
2019-04-12T11:34:20.639Z,9.20
2019-04-12T11:36:50.011Z,8.90
2019-04-12T11:39:19.366Z,9.20
2019-04-12T11:41:48.776Z,9.60
2019-04-12T11:44:18.134Z,9.70
2019-04-12T11:46:47.495Z,9.70
2019-04-12T11:49:16.893Z,9.90
2019-04-12T11:51:46.267Z,9.90
2019-04-12T11:54:15.618Z,9.80
2019-04-12T11:56:45.090Z,9.70
2019-04-12T11:59:14.439Z,9.70
2019-04-12T12:01:50.071Z,9.80
2019-04-12T12:04:45.431Z,10.00
2019-04-12T12:07:52.155Z,10.10
2019-04-12T12:10:47.503Z,9.80
2019-04-12T12:13:26.058Z,9.70
2019-04-12T12:16:17.151Z,9.50
2019-04-12T12:18:49.534Z,9.40
2019-04-12T12:21:18.893Z,9.40
2019-04-12T12:23:48.275Z,9.50
2019-04-12T12:26:17.553Z,9.70
2019-04-12T12:28:46.954Z,9.70
2019-04-12T12:31:16.309Z,9.60
2019-04-12T12:33:45.687Z,9.20
2019-04-12T12:36:15.036Z,9.00
2019-04-12T12:38:44.477Z,9.00
2019-04-12T12:41:13.809Z,9.10
2019-04-12T12:43:43.223Z,9.20
2019-04-12T12:46:12.547Z,9.20
2019-04-12T12:48:41.953Z,9.30
2019-04-12T12:51:11.287Z,9.30
2019-04-12T12:53:40.711Z,9.20
2019-04-12T12:56:10.071Z,9.20
2019-04-12T12:58:39.448Z,9.30
2019-04-12T13:01:08.799Z,9.40
2019-04-12T13:03:38.249Z,9.40
2019-04-12T13:06:07.524Z,9.60
2019-04-12T13:08:36.904Z,9.70
2019-04-12T13:11:06.656Z,9.80
2019-04-12T13:13:36.034Z,9.70
2019-04-12T13:16:05.383Z,9.50
2019-04-12T13:18:34.760Z,9.40
2019-04-12T13:21:04.120Z,9.30
2019-04-12T13:23:33.497Z,9.40
2019-04-12T13:26:02.848Z,9.50
2019-04-12T13:28:32.280Z,9.50
2019-04-12T13:31:36.058Z,9.40
2019-04-12T13:34:30.341Z,9.20
2019-04-12T13:37:26.124Z,9.10
2019-04-12T13:40:09.883Z,9.00
2019-04-12T13:42:41.332Z,8.90
2019-04-12T13:45:12.167Z,8.90
2019-04-12T13:47:41.515Z,8.80
2019-04-12T13:50:11.795Z,8.60
2019-04-12T13:52:41.149Z,8.60
2019-04-12T13:55:10.822Z,8.60
2019-04-12T13:57:40.171Z,8.50
2019-04-12T14:00:19.065Z,8.40
2019-04-12T14:02:41.057Z,8.40
2019-04-12T14:05:10.843Z,8.40
2019-04-12T14:07:40.188Z,8.40
2019-04-12T14:10:10.266Z,8.30
2019-04-12T14:12:39.639Z,8.20
2019-04-12T14:15:09.218Z,8.30
2019-04-12T14:17:38.584Z,8.30
2019-04-12T14:20:09.392Z,8.40
2019-04-12T14:22:38.852Z,8.20
2019-04-12T14:25:08.331Z,8.10
2019-04-12T14:27:37.683Z,8.10
2019-04-12T14:30:09.862Z,8.10
2019-04-12T14:32:41.484Z,8.00
2019-04-12T14:35:29.825Z,7.90
2019-04-12T14:38:02.293Z,7.80
2019-04-12T14:40:42.343Z,7.70
2019-04-12T14:43:07.643Z,7.70
2019-04-12T14:46:14.228Z,7.80
2019-04-12T14:48:43.591Z,7.80
2019-04-12T14:51:12.996Z,7.80
2019-04-12T14:53:42.351Z,7.90
2019-04-12T14:56:11.735Z,7.90
2019-04-12T14:58:41.101Z,7.80
2019-04-12T15:01:10.612Z,7.70
2019-04-12T15:03:39.947Z,7.70
2019-04-12T15:06:09.339Z,7.70
2019-04-12T15:08:38.694Z,7.60
2019-04-12T15:11:08.007Z,7.60
2019-04-12T15:13:37.377Z,7.50
2019-04-12T15:16:06.760Z,7.50
2019-04-12T15:18:36.129Z,7.50
2019-04-12T15:21:05.488Z,7.40
2019-04-12T15:23:34.903Z,7.40
2019-04-12T15:26:04.239Z,7.40
2019-04-12T15:28:33.652Z,7.40
2019-04-12T15:31:03.008Z,7.40
2019-04-12T15:33:32.386Z,7.40
2019-04-12T15:36:01.759Z,7.30
2019-04-12T15:38:31.131Z,7.20
2019-04-12T15:41:00.499Z,7.10
2019-04-12T15:43:29.879Z,7.10
2019-04-12T15:45:59.240Z,7.00
2019-04-12T15:48:28.623Z,7.00
2019-04-12T15:50:57.983Z,6.90
2019-04-12T15:53:27.375Z,6.80
2019-04-12T15:55:56.731Z,6.70
2019-04-12T15:58:26.119Z,6.70
2019-04-12T16:01:11.761Z,6.70
2019-04-12T16:03:35.822Z,6.60
2019-04-12T16:06:07.887Z,6.50
2019-04-12T16:08:48.516Z,6.40
2019-04-12T16:11:20.340Z,6.30
2019-04-12T16:14:14.375Z,6.30
2019-04-12T16:17:22.246Z,6.30
2019-04-12T16:19:54.111Z,6.20
2019-04-12T16:22:23.507Z,6.20
2019-04-12T16:24:52.866Z,6.10
2019-04-12T16:27:22.255Z,6.10
2019-04-12T16:30:03.763Z,6.00
2019-04-12T16:33:01.471Z,6.00
2019-04-12T16:35:51.366Z,6.00
2019-04-12T16:38:24.075Z,5.90
2019-04-12T16:40:53.452Z,5.90
2019-04-12T16:43:22.840Z,5.80
2019-04-12T16:45:52.219Z,5.90
2019-04-12T16:48:21.592Z,5.90
2019-04-12T16:50:50.899Z,5.90
2019-04-12T16:53:20.176Z,5.80
2019-04-12T16:55:49.535Z,5.80
2019-04-12T16:58:18.959Z,5.80
2019-04-12T17:00:48.332Z,5.70
2019-04-12T17:03:17.732Z,5.60
2019-04-12T17:05:47.087Z,5.60
2019-04-12T17:08:16.444Z,5.60
2019-04-12T17:10:45.831Z,5.50
2019-04-12T17:13:15.193Z,5.50
2019-04-12T17:15:44.567Z,5.50
2019-04-12T17:18:13.922Z,5.50
2019-04-12T17:20:43.299Z,5.40
2019-04-12T17:23:12.654Z,5.30
2019-04-12T17:25:42.034Z,5.30
2019-04-12T17:28:11.402Z,5.20
2019-04-12T17:30:40.812Z,5.20
2019-04-12T17:33:10.199Z,5.10
2019-04-12T17:35:39.631Z,5.00
2019-04-12T17:38:08.988Z,5.00
2019-04-12T17:40:38.355Z,4.90
2019-04-12T17:43:07.714Z,4.80
2019-04-12T17:45:37.162Z,4.80
2019-04-12T17:48:08.327Z,4.80
2019-04-12T17:50:45.794Z,4.80
2019-04-12T17:53:33.118Z,4.70
2019-04-12T17:56:05.659Z,4.70
2019-04-12T17:58:35.012Z,4.60
2019-04-12T18:01:20.379Z,4.60
2019-04-12T18:03:50.180Z,4.50
2019-04-12T18:06:19.559Z,4.50
2019-04-12T18:08:48.919Z,4.50
2019-04-12T18:11:23.098Z,4.50
2019-04-12T18:13:52.451Z,4.40
2019-04-12T18:16:21.832Z,4.40
2019-04-12T18:18:51.197Z,4.30
2019-04-12T18:21:20.575Z,4.30
2019-04-12T18:23:49.944Z,4.20
2019-04-12T18:26:19.325Z,4.20
2019-04-12T18:28:48.710Z,4.20
2019-04-12T18:31:18.096Z,4.10
2019-04-12T18:33:47.447Z,4.10
2019-04-12T18:36:16.835Z,4.00
2019-04-12T18:38:46.195Z,4.00
2019-04-12T18:41:15.567Z,4.00
2019-04-12T18:43:44.943Z,3.90
2019-04-12T18:46:14.335Z,3.90
2019-04-12T18:48:43.705Z,3.80
2019-04-12T18:51:13.087Z,3.90
2019-04-12T18:53:42.465Z,3.80
2019-04-12T18:56:11.876Z,3.80
2019-04-12T18:58:41.206Z,3.80
2019-04-12T19:01:10.597Z,3.80
2019-04-12T19:03:40.027Z,3.70
2019-04-12T19:06:14.763Z,3.70
2019-04-12T19:08:40.431Z,3.70
2019-04-12T19:11:09.825Z,3.70
2019-04-12T19:13:39.188Z,3.70
2019-04-12T19:16:08.579Z,3.60
2019-04-12T19:18:37.986Z,3.60
2019-04-12T19:21:07.364Z,3.60
2019-04-12T19:23:36.731Z,3.70
2019-04-12T19:26:06.423Z,3.60
2019-04-12T19:28:35.807Z,3.60
2019-04-12T19:31:05.910Z,3.60
2019-04-12T19:33:42.819Z,3.60
2019-04-12T19:36:30.058Z,3.50
2019-04-12T19:39:17.196Z,3.50
2019-04-12T19:41:47.115Z,3.50
2019-04-12T19:44:16.479Z,3.40
2019-04-12T19:46:45.884Z,3.40
2019-04-12T19:49:15.250Z,3.40
2019-04-12T19:51:44.651Z,3.40
2019-04-12T19:54:14.019Z,3.30
2019-04-12T19:56:43.383Z,3.30
2019-04-12T19:59:12.767Z,3.30
2019-04-12T20:01:42.127Z,3.20
2019-04-12T20:04:11.518Z,3.20
2019-04-12T20:06:40.891Z,3.20
2019-04-12T20:09:10.384Z,3.10
2019-04-12T20:11:39.747Z,3.10
2019-04-12T20:14:09.129Z,3.20
2019-04-12T20:16:38.499Z,3.10
2019-04-12T20:19:07.887Z,3.10
2019-04-12T20:21:37.247Z,3.10
2019-04-12T20:24:06.639Z,3.10
2019-04-12T20:26:36.006Z,3.10
2019-04-12T20:29:05.518Z,3.10
2019-04-12T20:31:34.880Z,3.10
2019-04-12T20:34:04.267Z,3.10
2019-04-12T20:36:33.631Z,3.00
2019-04-12T20:39:03.022Z,2.90
2019-04-12T20:41:32.379Z,2.90
2019-04-12T20:44:01.768Z,2.90
2019-04-12T20:46:31.131Z,2.90
2019-04-12T20:49:00.514Z,2.90
2019-04-12T20:51:29.875Z,2.90
2019-04-12T20:53:59.279Z,2.90
2019-04-12T20:56:28.647Z,2.90
2019-04-12T20:58:58.035Z,2.90
2019-04-12T21:01:27.400Z,2.80
2019-04-12T21:03:56.791Z,2.80
2019-04-12T21:06:26.151Z,2.80
2019-04-12T21:08:55.544Z,2.80
2019-04-12T21:11:24.936Z,2.80
2019-04-12T21:13:54.316Z,2.70
2019-04-12T21:16:23.722Z,2.70
2019-04-12T21:18:53.080Z,2.70
2019-04-12T21:21:22.442Z,2.70
2019-04-12T21:23:51.995Z,2.70
2019-04-12T21:26:21.462Z,2.70
2019-04-12T21:28:50.914Z,2.60
2019-04-12T21:31:20.278Z,2.60
2019-04-12T21:33:49.597Z,2.60
2019-04-12T21:36:18.958Z,2.70
2019-04-12T21:38:48.346Z,2.60
2019-04-12T21:41:17.711Z,2.60
2019-04-12T21:43:48.219Z,2.60
2019-04-12T21:46:20.070Z,2.60
2019-04-12T21:48:48.765Z,2.60
2019-04-12T21:51:18.136Z,2.50
2019-04-12T21:53:50.253Z,2.60
2019-04-12T21:56:18.535Z,2.50
2019-04-12T21:58:47.936Z,2.50
2019-04-12T22:01:19.199Z,2.50
2019-04-12T22:03:49.015Z,2.50
2019-04-12T22:06:18.387Z,2.50
2019-04-12T22:08:47.771Z,2.50
2019-04-12T22:11:17.143Z,2.50
2019-04-12T22:13:46.531Z,2.40
2019-04-12T22:16:15.898Z,2.40
2019-04-12T22:18:45.295Z,2.40
2019-04-12T22:21:14.663Z,2.40
2019-04-12T22:23:44.057Z,2.40
2019-04-12T22:26:13.423Z,2.40
2019-04-12T22:28:42.885Z,2.40
2019-04-12T22:31:12.195Z,2.40
2019-04-12T22:33:52.699Z,2.30
2019-04-12T22:36:12.586Z,2.30
2019-04-12T22:38:41.947Z,2.30
2019-04-12T22:41:11.331Z,2.30
2019-04-12T22:43:40.708Z,2.30
2019-04-12T22:46:10.087Z,2.40
2019-04-12T22:48:39.451Z,2.30
2019-04-12T22:51:08.849Z,2.30
2019-04-12T22:53:38.270Z,2.30
2019-04-12T22:56:07.663Z,2.20
2019-04-12T22:58:37.026Z,2.20
2019-04-12T23:01:06.416Z,2.20
2019-04-12T23:03:35.780Z,2.10
2019-04-12T23:06:05.171Z,2.20
2019-04-12T23:08:34.534Z,2.20
2019-04-12T23:11:04.191Z,2.20
2019-04-12T23:13:33.550Z,2.20
2019-04-12T23:16:02.866Z,2.20
2019-04-12T23:18:32.247Z,2.20
2019-04-12T23:21:01.635Z,2.20
2019-04-12T23:23:30.999Z,2.20
2019-04-12T23:26:00.383Z,2.10
2019-04-12T23:28:29.746Z,2.10
2019-04-12T23:31:17.018Z,2.10
2019-04-12T23:34:16.939Z,2.10
2019-04-12T23:36:39.199Z,2.10
2019-04-12T23:39:08.600Z,2.10
2019-04-12T23:41:37.955Z,2.10
2019-04-12T23:44:07.322Z,2.10
2019-04-12T23:46:36.779Z,2.00
2019-04-12T23:49:06.139Z,2.00
2019-04-12T23:51:35.520Z,2.10
2019-04-12T23:54:04.887Z,2.10
2019-04-12T23:56:34.330Z,2.10
2019-04-12T23:59:03.748Z,2.00
